Time;durP1;ratioP1;P1;durP2;ratioP2;P2;SDS_P1;SDS_P2;PMS_P1;PMS_P2;Temp;Humidity;BMP_temperature;BMP_pressure;BME280_temperature;BME280_humidity;BME280_pressure;Samples;Min_cycle;Max_cycle;Signal;HPM_P1;HPM_P2
2022/08/30 00:03:14;;;;;;;13.05;11.60;;;;;;;;;;5041504;28;20041;-66
2022/08/30 00:05:42;;;;;;;13.02;11.90;;;;;;;;;;5042497;28;20025;-66
2022/08/30 00:08:08;;;;;;;12.63;11.45;;;;;;;;;;5042250;28;20032;-66
2022/08/30 00:10:33;;;;;;;13.10;11.82;;;;;;;;;;5043972;28;20051;-66
2022/08/30 00:12:59;;;;;;;13.65;11.68;;;;;;;;;;5045513;28;20025;-66
2022/08/30 00:15:26;;;;;;;14.32;12.35;;;;;;;;;;5043361;28;20616;-66
2022/08/30 00:17:52;;;;;;;13.52;12.23;;;;;;;;;;5038861;28;20063;-66
2022/08/30 00:20:21;;;;;;;15.18;13.65;;;;;;;;;;5039633;28;20060;-66
2022/08/30 00:22:47;;;;;;;14.15;12.85;;;;;;;;;;5041530;28;20123;-66
2022/08/30 00:25:13;;;;;;;15.35;13.90;;;;;;;;;;5042032;28;20148;-66
2022/08/30 00:27:40;;;;;;;17.33;13.73;;;;;;;;;;5041201;28;20028;-66
2022/08/30 00:30:07;;;;;;;14.70;13.20;;;;;;;;;;5039690;28;20068;-66
2022/08/30 00:32:33;;;;;;;15.13;13.32;;;;;;;;;;5040202;28;20025;-66
2022/08/30 00:34:59;;;;;;;15.02;13.55;;;;;;;;;;5041934;28;20124;-66
2022/08/30 00:37:24;;;;;;;15.30;13.70;;;;;;;;;;5042525;28;20543;-66
2022/08/30 00:39:50;;;;;;;14.20;12.82;;;;;;;;;;5038247;28;20112;-66
2022/08/30 00:42:17;;;;;;;14.70;13.30;;;;;;;;;;5040875;28;20041;-66
2022/08/30 00:44:43;;;;;;;16.77;13.18;;;;;;;;;;5039374;28;20044;-66
2022/08/30 00:47:10;;;;;;;14.98;13.43;;;;;;;;;;5043619;28;20369;-66
2022/08/30 00:49:38;;;;;;;15.52;13.88;;;;;;;;;;5040270;28;22379;-66
2022/08/30 00:52:05;;;;;;;15.07;13.32;;;;;;;;;;5041778;28;20044;-66
2022/08/30 00:54:32;;;;;;;15.18;13.52;;;;;;;;;;5041129;28;20045;-67
2022/08/30 00:56:59;;;;;;;15.45;14.05;;;;;;;;;;5040837;28;20514;-66
2022/08/30 00:59:25;;;;;;;14.45;13.10;;;;;;;;;;5038429;28;20025;-66
2022/08/30 01:01:52;;;;;;;14.32;12.82;;;;;;;;;;5039901;28;20393;-66
2022/08/30 01:04:20;;;;;;;15.10;13.73;;;;;;;;;;5038745;28;20048;-66
2022/08/30 01:06:46;;;;;;;15.48;13.98;;;;;;;;;;5043389;28;20554;-66
2022/08/30 01:09:13;;;;;;;14.90;13.55;;;;;;;;;;5038533;28;20045;-66
2022/08/30 01:11:41;;;;;;;15.02;13.73;;;;;;;;;;5045343;28;20464;-66
2022/08/30 01:14:08;;;;;;;14.65;13.18;;;;;;;;;;5041037;28;20116;-66
2022/08/30 01:16:35;;;;;;;16.23;13.55;;;;;;;;;;5041170;28;20029;-66
2022/08/30 01:19:01;;;;;;;14.65;13.35;;;;;;;;;;5042213;28;20032;-66
2022/08/30 01:21:30;;;;;;;16.02;13.82;;;;;;;;;;5041864;28;20057;-66
2022/08/30 01:23:57;;;;;;;;;;;;;;;;;;5042338;28;20108;-66
2022/08/30 01:26:24;;;;;;;16.73;13.35;;;;;;;;;;5038726;28;19920;-66
2022/08/30 01:28:53;;;;;;;16.42;14.45;;;;;;;;;;5041446;28;20059;-66
2022/08/30 01:31:19;;;;;;;16.20;14.50;;;;;;;;;;5041016;28;20033;-66
2022/08/30 01:33:44;;;;;;;16.00;14.18;;;;;;;;;;5040961;28;20051;-66
2022/08/30 01:36:12;;;;;;;14.82;13.38;;;;;;;;;;5042976;28;20033;-66
2022/08/30 01:38:50;;;;;;;15.43;13.82;;;;;;;;;;5039603;28;20058;-66
2022/08/30 01:41:21;;;;;;;14.77;13.40;;;;;;;;;;5039941;28;20033;-65
2022/08/30 01:43:48;;;;;;;14.93;13.35;;;;;;;;;;5039287;28;20083;-66
2022/08/30 01:46:15;;;;;;;14.68;13.27;;;;;;;;;;5044310;28;20489;-66
2022/08/30 01:48:41;;;;;;;14.52;13.00;;;;;;;;;;5043556;28;20044;-66
2022/08/30 01:51:10;;;;;;;14.30;12.93;;;;;;;;;;5043636;28;20064;-66
2022/08/30 01:53:38;;;;;;;15.18;13.60;;;;;;;;;;5046269;28;20400;-66
2022/08/30 01:56:04;;;;;;;15.68;13.95;;;;;;;;;;5045499;28;20036;-66
2022/08/30 01:58:30;;;;;;;15.27;13.70;;;;;;;;;;5044540;28;20036;-66
2022/08/30 02:00:56;;;;;;;15.50;13.90;;;;;;;;;;5045552;28;20063;-66
2022/08/30 02:03:25;;;;;;;15.18;13.68;;;;;;;;;;5045919;28;20036;-66
2022/08/30 02:05:51;;;;;;;16.85;13.95;;;;;;;;;;5044811;28;20044;-66
2022/08/30 02:08:16;;;;;;;15.38;13.82;;;;;;;;;;5046222;28;20041;-66
2022/08/30 02:10:42;;;;;;;15.07;13.52;;;;;;;;;;5043690;28;20106;-66
2022/08/30 02:13:08;;;;;;;15.02;13.63;;;;;;;;;;5039402;28;20033;-66
2022/08/30 02:15:34;;;;;;;14.60;13.25;;;;;;;;;;5035264;28;20041;-66
2022/08/30 02:18:00;;;;;;;15.68;14.07;;;;;;;;;;5045043;28;20138;-66
2022/08/30 02:20:25;;;;;;;17.80;14.07;;;;;;;;;;5043601;28;20041;-66
2022/08/30 02:22:51;;;;;;;17.30;13.88;;;;;;;;;;5044608;28;20103;-66
2022/08/30 02:25:17;;;;;;;16.08;14.60;;;;;;;;;;5043732;28;20133;-66
2022/08/30 02:27:42;;;;;;;16.00;14.35;;;;;;;;;;5044237;28;20824;-66
2022/08/30 02:30:09;;;;;;;16.17;14.48;;;;;;;;;;5045134;28;20029;-66
2022/08/30 02:32:35;;;;;;;15.25;13.93;;;;;;;;;;5039962;28;20426;-66
2022/08/30 02:35:00;;;;;;;16.10;14.45;;;;;;;;;;5042903;28;20128;-66
2022/08/30 02:37:26;;;;;;;15.60;14.10;;;;;;;;;;5046611;28;20032;-66
2022/08/30 02:39:51;;;;;;;16.05;14.52;;;;;;;;;;5042098;28;20033;-66
2022/08/30 02:42:17;;;;;;;16.10;14.50;;;;;;;;;;5042984;28;20068;-66
2022/08/30 02:44:43;;;;;;;18.17;15.65;;;;;;;;;;5042121;28;20116;-66
2022/08/30 02:47:08;;;;;;;15.82;14.25;;;;;;;;;;5041799;28;20042;-66
2022/08/30 02:49:35;;;;;;;16.02;14.52;;;;;;;;;;5042815;28;20039;-66
2022/08/30 02:52:03;;;;;;;16.38;14.18;;;;;;;;;;5041447;28;20142;-66
2022/08/30 02:54:31;;;;;;;15.63;14.18;;;;;;;;;;5041190;28;20041;-66
2022/08/30 02:59:28;;;;;;;15.45;13.85;;;;;;;;;;4946961;28;20666;-64
2022/08/30 03:01:54;;;;;;;15.27;13.88;;;;;;;;;;4949882;28;20031;-64
2022/08/30 03:04:20;;;;;;;15.63;14.02;;;;;;;;;;4951839;28;20055;-64
2022/08/30 03:06:46;;;;;;;15.38;13.88;;;;;;;;;;4948949;28;20031;-64
2022/08/30 03:09:11;;;;;;;15.90;14.20;;;;;;;;;;4950863;28;20442;-64
2022/08/30 03:11:37;;;;;;;17.00;14.90;;;;;;;;;;4953186;28;20042;-63
2022/08/30 03:14:03;;;;;;;17.60;14.95;;;;;;;;;;4948625;28;20123;-64
2022/08/30 03:16:28;;;;;;;17.65;14.77;;;;;;;;;;4952264;28;20689;-64
2022/08/30 03:18:54;;;;;;;16.85;15.13;;;;;;;;;;4954314;28;20031;-64
2022/08/30 03:21:20;;;;;;;22.05;15.25;;;;;;;;;;4950655;28;20079;-64
2022/08/30 03:23:45;;;;;;;16.27;14.55;;;;;;;;;;4948185;28;20039;-64
2022/08/30 03:26:13;;;;;;;16.73;15.00;;;;;;;;;;4953409;28;20035;-64
2022/08/30 03:28:42;;;;;;;16.45;14.80;;;;;;;;;;4953161;28;20039;-64
2022/08/30 03:31:09;;;;;;;17.17;15.45;;;;;;;;;;4951371;28;20058;-63
2022/08/30 03:33:35;;;;;;;16.52;14.90;;;;;;;;;;4953593;28;20035;-64
2022/08/30 03:36:01;;;;;;;16.38;14.77;;;;;;;;;;4950690;28;20039;-64
2022/08/30 03:38:26;;;;;;;16.35;14.77;;;;;;;;;;4949773;28;20046;-64
2022/08/30 03:40:52;;;;;;;16.13;14.60;;;;;;;;;;4950061;28;20506;-64
2022/08/30 03:43:17;;;;;;;16.98;15.27;;;;;;;;;;4941560;29;20039;-64
2022/08/30 03:45:43;;;;;;;17.25;15.52;;;;;;;;;;4950654;28;20038;-64
2022/08/30 03:48:09;;;;;;;17.52;15.85;;;;;;;;;;4949362;28;20058;-64
2022/08/30 03:50:35;;;;;;;17.20;15.35;;;;;;;;;;4946504;28;20606;-64
2022/08/30 03:53:01;;;;;;;18.50;16.50;;;;;;;;;;4950001;28;20043;-64
2022/08/30 03:55:28;;;;;;;19.85;15.23;;;;;;;;;;4952737;28;20427;-63
2022/08/30 03:57:54;;;;;;;17.60;15.85;;;;;;;;;;4951236;28;20039;-63
2022/08/30 04:00:20;;;;;;;17.77;15.98;;;;;;;;;;4944800;28;20035;-64
2022/08/30 04:02:45;;;;;;;19.25;17.23;;;;;;;;;;4951417;28;20136;-63
2022/08/30 04:05:12;;;;;;;17.75;15.95;;;;;;;;;;4951252;28;20043;-64
2022/08/30 04:07:38;;;;;;;18.38;15.80;;;;;;;;;;4951398;28;20565;-64
2022/08/30 04:10:06;;;;;;;19.05;16.80;;;;;;;;;;4948965;28;20067;-64
2022/08/30 04:12:31;;;;;;;23.38;17.13;;;;;;;;;;4949096;28;20035;-64
2022/08/30 04:14:57;;;;;;;19.73;16.85;;;;;;;;;;4949402;28;20043;-64
2022/08/30 04:17:23;;;;;;;18.35;16.45;;;;;;;;;;4945952;28;20035;-64
2022/08/30 04:19:49;;;;;;;18.85;16.80;;;;;;;;;;4934086;28;20094;-63
2022/08/30 04:22:15;;;;;;;19.17;17.15;;;;;;;;;;4950397;28;20027;-63
2022/08/30 04:24:40;;;;;;;20.40;18.23;;;;;;;;;;4947417;28;20070;-63
2022/08/30 04:27:07;;;;;;;19.42;17.42;;;;;;;;;;4947698;28;20082;-63
2022/08/30 04:29:33;;;;;;;24.63;18.10;;;;;;;;;;4945804;28;20039;-63
2022/08/30 04:31:59;;;;;;;19.90;17.23;;;;;;;;;;4959518;28;20681;-63
2022/08/30 04:34:25;;;;;;;20.42;18.17;;;;;;;;;;4949994;28;20038;-63
2022/08/30 04:36:51;;;;;;;18.77;16.65;;;;;;;;;;4948306;28;20491;-63
2022/08/30 04:39:17;;;;;;;19.73;17.45;;;;;;;;;;4952903;28;20134;-63
2022/08/30 04:41:43;;;;;;;20.52;18.35;;;;;;;;;;4948980;28;20116;-63
2022/08/30 04:44:09;;;;;;;21.88;19.70;;;;;;;;;;4948353;28;20035;-62
2022/08/30 04:46:35;;;;;;;20.77;18.52;;;;;;;;;;4946828;28;20490;-63
2022/08/30 04:49:03;;;;;;;22.40;19.13;;;;;;;;;;4950967;28;20039;-63
2022/08/30 04:51:28;;;;;;;19.98;17.88;;;;;;;;;;4948134;28;20047;-63
2022/08/30 04:53:54;;;;;;;21.08;18.40;;;;;;;;;;4950288;28;20057;-62
2022/08/30 04:56:22;;;;;;;20.35;17.63;;;;;;;;;;4952750;28;20047;-63
2022/08/30 04:58:50;;;;;;;25.03;18.90;;;;;;;;;;4950802;28;20035;-62
2022/08/30 05:01:22;;;;;;;20.88;18.00;;;;;;;;;;4948990;28;20035;-63
2022/08/30 05:03:48;;;;;;;19.70;17.67;;;;;;;;;;4950190;28;20035;-62
2022/08/30 05:06:15;;;;;;;20.27;18.13;;;;;;;;;;4937402;28;20039;-62
2022/08/30 05:08:41;;;;;;;20.10;17.92;;;;;;;;;;4949455;28;20031;-62
2022/08/30 05:11:08;;;;;;;20.33;18.17;;;;;;;;;;4946930;28;20106;-63
2022/08/30 05:13:34;;;;;;;20.13;17.95;;;;;;;;;;4950801;28;20100;-63
2022/08/30 05:16:00;;;;;;;19.85;17.75;;;;;;;;;;4952804;28;20031;-63
2022/08/30 05:18:26;;;;;;;19.27;17.33;;;;;;;;;;4942320;28;20077;-63
2022/08/30 05:21:16;;;;;;;19.95;17.90;;;;;;;;;;4948558;28;20038;-65
2022/08/30 05:23:42;;;;;;;23.02;17.45;;;;;;;;;;4952777;28;20125;-64
2022/08/30 05:26:13;;;;;;;20.77;18.05;;;;;;;;;;4953859;28;20106;-64
2022/08/30 05:28:39;;;;;;;19.75;17.75;;;;;;;;;;4951011;28;20442;-64
2022/08/30 05:31:33;;;;;;;19.15;17.35;;;;;;;;;;4953442;28;20031;-64
2022/08/30 05:33:58;;;;;;;19.27;17.33;;;;;;;;;;4942280;28;20406;-64
2022/08/30 05:36:27;;;;;;;18.95;16.95;;;;;;;;;;4946266;28;20043;-64
2022/08/30 05:38:53;;;;;;;18.02;16.15;;;;;;;;;;4954053;28;20043;-63
2022/08/30 05:41:20;;;;;;;17.33;15.38;;;;;;;;;;4948560;28;20055;-64
2022/08/30 05:43:48;;;;;;;16.17;14.57;;;;;;;;;;4952995;28;20031;-64
2022/08/30 05:46:18;;;;;;;16.30;14.30;;;;;;;;;;4951994;28;20517;-64
2022/08/30 05:48:44;;;;;;;18.27;15.20;;;;;;;;;;4956959;28;20332;-64
2022/08/30 05:51:11;;;;;;;15.93;14.52;;;;;;;;;;4950237;28;20090;-64
2022/08/30 05:53:38;;;;;;;16.88;15.30;;;;;;;;;;4952397;28;20023;-64
2022/08/30 05:56:07;;;;;;;16.08;14.65;;;;;;;;;;4956360;28;20407;-64
2022/08/30 05:58:33;;;;;;;16.02;14.38;;;;;;;;;;4952176;28;20117;-64
2022/08/30 06:00:59;;;;;;;16.52;15.00;;;;;;;;;;4951060;28;20141;-64
2022/08/30 06:03:25;;;;;;;17.02;14.85;;;;;;;;;;4953295;28;20042;-64
2022/08/30 06:05:51;;;;;;;15.75;14.15;;;;;;;;;;4955732;28;20031;-64
2022/08/30 06:08:19;;;;;;;16.77;15.13;;;;;;;;;;4951002;28;20142;-64
2022/08/30 06:10:44;;;;;;;16.27;14.52;;;;;;;;;;4954644;28;20510;-64
2022/08/30 06:13:12;;;;;;;17.15;15.30;;;;;;;;;;4952614;28;20514;-64
2022/08/30 06:15:38;;;;;;;16.65;14.85;;;;;;;;;;4950900;28;20032;-64
2022/08/30 06:18:04;;;;;;;16.80;15.10;;;;;;;;;;4947697;28;20057;-63
2022/08/30 06:20:30;;;;;;;17.52;15.73;;;;;;;;;;4952808;28;20158;-62
2022/08/30 06:22:55;;;;;;;17.00;15.48;;;;;;;;;;4953160;28;20031;-62
2022/08/30 06:25:21;;;;;;;17.08;15.27;;;;;;;;;;4951499;28;20027;-61
2022/08/30 06:27:46;;;;;;;15.77;13.98;;;;;;;;;;4955636;28;20074;-62
2022/08/30 06:30:12;;;;;;;16.00;14.63;;;;;;;;;;4951922;28;21073;-62
2022/08/30 06:32:38;;;;;;;15.85;14.13;;;;;;;;;;4951304;28;20035;-62
2022/08/30 06:35:06;;;;;;;15.85;14.35;;;;;;;;;;4954988;28;20491;-62
2022/08/30 06:37:32;;;;;;;15.35;13.95;;;;;;;;;;4949768;28;20035;-64
2022/08/30 06:39:59;;;;;;;15.48;13.00;;;;;;;;;;4949109;28;20307;-63
2022/08/30 06:42:30;;;;;;;15.27;12.43;;;;;;;;;;4950799;28;20418;-62
2022/08/30 06:44:57;;;;;;;14.55;13.20;;;;;;;;;;4954259;28;20514;-62
2022/08/30 06:47:23;;;;;;;14.07;12.73;;;;;;;;;;4950399;28;20074;-62
2022/08/30 06:49:49;;;;;;;13.00;11.90;;;;;;;;;;4950460;28;20110;-62
2022/08/30 06:52:14;;;;;;;13.85;12.55;;;;;;;;;;4955320;28;20031;-63
2022/08/30 06:54:40;;;;;;;13.55;12.35;;;;;;;;;;4952119;28;20080;-63
2022/08/30 06:57:06;;;;;;;14.30;12.95;;;;;;;;;;4949491;28;20027;-63
2022/08/30 06:59:31;;;;;;;16.35;13.45;;;;;;;;;;4943913;28;20122;-63
2022/08/30 07:01:57;;;;;;;14.40;11.95;;;;;;;;;;4951558;28;20027;-63
2022/08/30 07:04:23;;;;;;;14.07;12.25;;;;;;;;;;4954671;28;20035;-63
2022/08/30 07:06:49;;;;;;;13.15;12.10;;;;;;;;;;4951298;28;20513;-66
2022/08/30 07:09:14;;;;;;;14.32;11.80;;;;;;;;;;4951089;28;20035;-63
2022/08/30 07:11:40;;;;;;;13.25;11.98;;;;;;;;;;4949388;28;20031;-63
2022/08/30 07:14:06;;;;;;;15.07;11.38;;;;;;;;;;4949103;28;20031;-63
2022/08/30 07:16:32;;;;;;;15.48;12.07;;;;;;;;;;4951474;28;20063;-62
2022/08/30 07:18:59;;;;;;;13.07;11.80;;;;;;;;;;4951624;28;20030;-63
2022/08/30 07:21:32;;;;;;;12.57;11.45;;;;;;;;;;4946822;28;20039;-63
2022/08/30 07:23:59;;;;;;;13.02;11.82;;;;;;;;;;4952377;28;20035;-63
2022/08/30 07:26:29;;;;;;;12.52;11.35;;;;;;;;;;4942721;28;20383;-62
2022/08/30 07:28:55;;;;;;;13.02;11.93;;;;;;;;;;4951010;28;20051;-63
2022/08/30 07:31:21;;;;;;;13.10;11.80;;;;;;;;;;4949443;28;20041;-63
2022/08/30 07:33:47;;;;;;;12.88;11.50;;;;;;;;;;4951866;28;20031;-63
2022/08/30 07:36:14;;;;;;;12.82;11.50;;;;;;;;;;4948121;28;20118;-63
2022/08/30 07:38:40;;;;;;;13.98;11.48;;;;;;;;;;4949222;28;20085;-64
2022/08/30 07:41:06;;;;;;;11.18;10.27;;;;;;;;;;4949247;28;20039;-63
2022/08/30 07:43:32;;;;;;;12.07;10.93;;;;;;;;;;4952406;28;20035;-64
2022/08/30 07:46:04;;;;;;;11.95;10.90;;;;;;;;;;4951786;28;20039;-63
2022/08/30 07:48:30;;;;;;;12.18;11.07;;;;;;;;;;4948332;28;20085;-63
2022/08/30 07:50:56;;;;;;;12.05;10.85;;;;;;;;;;4949128;28;20114;-63
2022/08/30 07:53:21;;;;;;;11.65;10.70;;;;;;;;;;4948061;28;20051;-63
2022/08/30 07:55:47;;;;;;;13.30;11.40;;;;;;;;;;4949467;28;20054;-63
2022/08/30 07:58:13;;;;;;;12.88;11.27;;;;;;;;;;4947427;28;20402;-63
2022/08/30 08:00:39;;;;;;;12.00;10.60;;;;;;;;;;4950005;28;20062;-64
2022/08/30 08:03:07;;;;;;;11.63;10.65;;;;;;;;;;4949828;28;20499;-63
2022/08/30 08:05:41;;;;;;;16.73;11.45;;;;;;;;;;4949708;28;20521;-64
2022/08/30 08:08:07;;;;;;;12.10;10.65;;;;;;;;;;4947835;28;20075;-63
2022/08/30 08:10:35;;;;;;;12.38;11.25;;;;;;;;;;4952580;28;20063;-63
2022/08/30 08:13:01;;;;;;;11.55;10.48;;;;;;;;;;4949884;28;20042;-64
2022/08/30 08:15:27;;;;;;;11.68;10.55;;;;;;;;;;4954191;28;20035;-63
2022/08/30 08:17:53;;;;;;;13.65;10.52;;;;;;;;;;4952499;28;20047;-64
2022/08/30 08:20:19;;;;;;;12.18;11.05;;;;;;;;;;4962358;28;20042;-63
2022/08/30 08:22:44;;;;;;;12.73;10.98;;;;;;;;;;4948571;28;20373;-63
2022/08/30 08:25:10;;;;;;;10.82;9.98;;;;;;;;;;4951041;28;20502;-63
2022/08/30 08:27:36;;;;;;;11.60;10.40;;;;;;;;;;4948047;28;20394;-63
2022/08/30 08:30:02;;;;;;;13.60;9.68;;;;;;;;;;4950975;28;20035;-64
2022/08/30 08:32:27;;;;;;;11.25;10.35;;;;;;;;;;4951203;28;20418;-63
2022/08/30 08:34:53;;;;;;;14.20;10.15;;;;;;;;;;4948157;28;20051;-64
2022/08/30 08:37:20;;;;;;;11.40;10.40;;;;;;;;;;4949116;28;20574;-63
2022/08/30 08:39:45;;;;;;;11.68;10.55;;;;;;;;;;4940252;28;20046;-64
2022/08/30 08:42:21;;;;;;;11.20;9.93;;;;;;;;;;4948124;28;20051;-63
2022/08/30 08:44:58;;;;;;;12.30;10.02;;;;;;;;;;4948445;28;20040;-64
2022/08/30 08:47:38;;;;;;;10.52;9.48;;;;;;;;;;4953311;28;20038;-63
2022/08/30 08:50:11;;;;;;;11.05;10.05;;;;;;;;;;4947924;28;20389;-64
2022/08/30 08:55:44;;;;;;;11.23;10.10;;;;;;;;;;4949860;28;20043;-64
2022/08/30 08:58:27;;;;;;;11.10;10.00;;;;;;;;;;4985062;22;20093;-66
2022/08/30 09:00:55;;;;;;;15.95;10.02;;;;;;;;;;5009603;28;20022;-66
2022/08/30 09:03:25;;;;;;;10.90;9.82;;;;;;;;;;5009765;28;20107;-66
2022/08/30 09:05:52;;;;;;;12.27;9.95;;;;;;;;;;5004626;28;20049;-66
2022/08/30 09:08:18;;;;;;;10.80;9.68;;;;;;;;;;5011355;28;20164;-66
2022/08/30 09:10:59;;;;;;;10.65;9.60;;;;;;;;;;5015308;28;20037;-67
2022/08/30 09:13:25;;;;;;;10.23;9.32;;;;;;;;;;5017299;28;20554;-66
2022/08/30 09:15:54;;;;;;;10.57;9.52;;;;;;;;;;5012898;28;20117;-66
2022/08/30 09:18:40;;;;;;;10.68;9.63;;;;;;;;;;5021348;28;20051;-67
2022/08/30 09:21:07;;;;;;;10.68;9.88;;;;;;;;;;5019128;28;20034;-67
2022/08/30 09:23:33;;;;;;;10.32;9.50;;;;;;;;;;5008675;28;20025;-67
2022/08/30 09:26:07;;;;;;;11.60;10.38;;;;;;;;;;5017427;28;20041;-67
2022/08/30 09:28:49;;;;;;;11.48;9.80;;;;;;;;;;5016168;28;20026;-67
2022/08/30 09:31:44;;;;;;;10.68;9.77;;;;;;;;;;5015211;28;20038;-66
2022/08/30 09:34:20;;;;;;;10.63;9.65;;;;;;;;;;5018399;28;20380;-67
2022/08/30 09:36:51;;;;;;;9.77;8.98;;;;;;;;;;5020650;28;20075;-66
2022/08/30 09:39:30;;;;;;;10.10;9.27;;;;;;;;;;5015367;28;20731;-67
2022/08/30 09:42:11;;;;;;;10.05;9.35;;;;;;;;;;5013242;28;20040;-68
2022/08/30 09:44:38;;;;;;;10.63;9.68;;;;;;;;;;5018705;28;20061;-68
2022/08/30 09:47:04;;;;;;;10.77;9.88;;;;;;;;;;5016723;28;20118;-68
2022/08/30 09:49:38;;;;;;;11.13;10.23;;;;;;;;;;5012788;28;20034;-67
2022/08/30 09:52:32;;;;;;;10.70;9.90;;;;;;;;;;5011678;28;20034;-68
2022/08/30 09:55:19;;;;;;;10.68;9.68;;;;;;;;;;5018207;28;20038;-67
2022/08/30 09:58:18;;;;;;;10.95;9.95;;;;;;;;;;5016530;28;20101;-68
2022/08/30 10:01:12;;;;;;;10.27;9.57;;;;;;;;;;5016969;28;20077;-67
2022/08/30 10:03:55;;;;;;;10.75;9.75;;;;;;;;;;5018068;28;20400;-68
2022/08/30 10:06:32;;;;;;;9.95;9.25;;;;;;;;;;5012216;28;20029;-68
2022/08/30 10:09:20;;;;;;;10.07;9.27;;;;;;;;;;5015258;28;20041;-67
2022/08/30 10:11:54;;;;;;;10.67;9.63;;;;;;;;;;5024004;28;20475;-67
2022/08/30 10:14:26;;;;;;;10.02;9.23;;;;;;;;;;5016259;28;20409;-67
2022/08/30 10:16:59;;;;;;;10.55;9.80;;;;;;;;;;5019755;28;20106;-67
2022/08/30 10:20:02;;;;;;;11.23;9.90;;;;;;;;;;5017673;28;20034;-68
2022/08/30 10:22:57;;;;;;;11.13;10.00;;;;;;;;;;5014870;28;20595;-68
2022/08/30 10:25:29;;;;;;;9.60;8.80;;;;;;;;;;4983335;28;20060;-67
2022/08/30 10:28:09;;;;;;;10.13;9.30;;;;;;;;;;5019657;28;20041;-67
2022/08/30 10:30:39;;;;;;;9.85;9.15;;;;;;;;;;5017312;28;20440;-67
2022/08/30 10:33:09;;;;;;;10.95;10.05;;;;;;;;;;5019135;28;20053;-67
2022/08/30 10:35:42;;;;;;;10.30;9.50;;;;;;;;;;5021346;28;20034;-68
2022/08/30 10:38:20;;;;;;;10.73;9.68;;;;;;;;;;5018003;28;20500;-67
2022/08/30 10:43:52;;;;;;;9.98;9.07;;;;;;;;;;5021307;28;20034;-67
2022/08/30 10:46:38;;;;;;;9.95;9.15;;;;;;;;;;5024064;28;20092;-68
2022/08/30 10:49:13;;;;;;;9.38;8.57;;;;;;;;;;5017980;28;20459;-67
2022/08/30 10:51:49;;;;;;;9.57;8.88;;;;;;;;;;5019617;28;20075;-67
2022/08/30 10:54:31;;;;;;;10.02;9.13;;;;;;;;;;5018242;28;20038;-67
2022/08/30 10:56:57;;;;;;;9.27;8.40;;;;;;;;;;5016595;28;20087;-67
2022/08/30 10:59:23;;;;;;;9.40;8.80;;;;;;;;;;5022785;28;20038;-67
2022/08/30 11:02:07;;;;;;;9.48;8.77;;;;;;;;;;5016645;28;20237;-67
2022/08/30 11:04:46;;;;;;;9.75;8.90;;;;;;;;;;5013342;28;20038;-67
2022/08/30 11:07:21;;;;;;;10.18;9.38;;;;;;;;;;5015573;28;20124;-67
2022/08/30 11:10:01;;;;;;;10.73;9.48;;;;;;;;;;5024705;28;20298;-67
2022/08/30 11:12:52;;;;;;;10.60;9.63;;;;;;;;;;5018837;28;20041;-67
2022/08/30 11:15:21;;;;;;;10.27;9.57;;;;;;;;;;5017870;28;20070;-67
2022/08/30 11:18:00;;;;;;;10.00;9.20;;;;;;;;;;5020384;28;20065;-67
2022/08/30 11:20:38;;;;;;;10.25;9.45;;;;;;;;;;5015380;28;20128;-67
2022/08/30 11:23:27;;;;;;;10.25;9.20;;;;;;;;;;5015398;28;20030;-68
2022/08/30 11:26:07;;;;;;;10.48;9.68;;;;;;;;;;5005410;28;20103;-67
2022/08/30 11:28:35;;;;;;;10.15;9.35;;;;;;;;;;5016835;28;20041;-68
2022/08/30 11:31:07;;;;;;;;;;;;;;;;;;5015163;28;20051;-67
2022/08/30 11:33:46;;;;;;;10.50;9.80;;;;;;;;;;5003733;28;19921;-67
2022/08/30 11:36:27;;;;;;;10.23;9.48;;;;;;;;;;5011384;28;20108;-67
2022/08/30 11:38:52;;;;;;;10.27;9.43;;;;;;;;;;5017791;28;20045;-67
2022/08/30 11:42:07;;;;;;;10.70;9.90;;;;;;;;;;5012836;28;20030;-67
2022/08/30 11:44:33;;;;;;;10.10;9.40;;;;;;;;;;4954438;28;20051;-67
2022/08/30 11:47:20;;;;;;;10.45;9.75;;;;;;;;;;4949404;28;20035;-67
2022/08/30 11:49:57;;;;;;;10.17;9.50;;;;;;;;;;4946324;28;20093;-68
2022/08/30 11:52:45;;;;;;;11.15;10.35;;;;;;;;;;4958418;28;20126;-67
2022/08/30 11:55:37;;;;;;;10.43;9.75;;;;;;;;;;4952347;28;20043;-67
2022/08/30 11:58:21;;;;;;;10.70;9.43;;;;;;;;;;4958920;28;20097;-67
2022/08/30 12:00:47;;;;;;;10.45;9.50;;;;;;;;;;4958283;28;20046;-67
2022/08/30 12:03:19;;;;;;;11.30;10.45;;;;;;;;;;4944856;28;20102;-67
2022/08/30 12:06:00;;;;;;;10.25;9.32;;;;;;;;;;4957550;28;20062;-67
2022/08/30 12:08:34;;;;;;;10.82;9.95;;;;;;;;;;4956349;28;20046;-67
2022/08/30 12:11:20;;;;;;;10.75;9.95;;;;;;;;;;4943775;28;20526;-67
2022/08/30 12:13:45;;;;;;;10.75;9.95;;;;;;;;;;4955654;28;20093;-67
2022/08/30 12:16:29;;;;;;;11.50;10.48;;;;;;;;;;4950458;28;20065;-68
2022/08/30 12:19:13;;;;;;;11.50;10.15;;;;;;;;;;4943334;28;20046;-67
2022/08/30 12:21:39;;;;;;;10.95;10.05;;;;;;;;;;5010033;28;20485;-67
2022/08/30 12:24:07;;;;;;;10.55;9.75;;;;;;;;;;5015767;28;20120;-67
2022/08/30 12:26:39;;;;;;;10.82;9.98;;;;;;;;;;5017031;28;20041;-67
2022/08/30 12:29:22;;;;;;;11.35;10.50;;;;;;;;;;5018345;28;20491;-67
2022/08/30 12:31:52;;;;;;;10.73;9.95;;;;;;;;;;5020186;28;20026;-67
2022/08/30 12:34:50;;;;;;;10.50;9.80;;;;;;;;;;4997118;28;20069;-67
2022/08/30 12:37:25;;;;;;;11.02;10.00;;;;;;;;;;5012209;28;20043;-68
2022/08/30 12:40:09;;;;;;;10.50;9.70;;;;;;;;;;5017326;28;20400;-67
2022/08/30 12:42:37;;;;;;;10.77;10.07;;;;;;;;;;5019127;28;20134;-67
2022/08/30 12:45:13;;;;;;;10.55;9.75;;;;;;;;;;5007745;28;20033;-67
2022/08/30 12:47:48;;;;;;;11.05;10.05;;;;;;;;;;5013730;28;20041;-68
2022/08/30 12:50:19;;;;;;;11.02;10.18;;;;;;;;;;5016800;28;20034;-67
2022/08/30 12:52:54;;;;;;;10.23;9.50;;;;;;;;;;5011101;28;20139;-68
2022/08/30 12:55:28;;;;;;;10.98;10.18;;;;;;;;;;5018530;28;20207;-67
2022/08/30 12:57:59;;;;;;;11.48;10.50;;;;;;;;;;5014845;28;20352;-67
2022/08/30 13:00:31;;;;;;;10.80;9.95;;;;;;;;;;5015149;28;20029;-67
2022/08/30 13:03:00;;;;;;;11.40;10.45;;;;;;;;;;5015121;28;20029;-67
2022/08/30 13:05:26;;;;;;;11.30;10.35;;;;;;;;;;5014299;28;20104;-67
2022/08/30 13:07:52;;;;;;;10.85;9.98;;;;;;;;;;5016804;28;20167;-67
2022/08/30 13:10:18;;;;;;;10.95;10.20;;;;;;;;;;5013592;28;20481;-67
2022/08/30 13:12:59;;;;;;;10.27;9.57;;;;;;;;;;5017137;28;20033;-67
2022/08/30 13:15:40;;;;;;;10.60;9.80;;;;;;;;;;5019236;28;20115;-68
2022/08/30 13:18:23;;;;;;;10.98;10.00;;;;;;;;;;5017333;28;20128;-67
2022/08/30 13:20:49;;;;;;;11.05;10.05;;;;;;;;;;5012158;28;20534;-67
2022/08/30 13:23:22;;;;;;;11.10;10.38;;;;;;;;;;5020322;28;20505;-67
2022/08/30 13:25:48;;;;;;;10.80;10.07;;;;;;;;;;5019767;28;20069;-67
2022/08/30 13:28:14;;;;;;;10.65;9.82;;;;;;;;;;5015778;28;20068;-67
2022/08/30 13:30:40;;;;;;;10.43;9.52;;;;;;;;;;5016364;28;20053;-67
2022/08/30 13:33:08;;;;;;;10.45;9.75;;;;;;;;;;5011760;28;20038;-67
2022/08/30 13:35:34;;;;;;;10.57;9.70;;;;;;;;;;5018672;28;20405;-67
2022/08/30 13:38:01;;;;;;;10.98;10.18;;;;;;;;;;5010071;28;20072;-67
2022/08/30 13:40:26;;;;;;;10.98;10.18;;;;;;;;;;5015181;28;20102;-67
2022/08/30 13:42:52;;;;;;;10.77;9.88;;;;;;;;;;5018680;28;20281;-67
2022/08/30 13:45:18;;;;;;;11.50;10.60;;;;;;;;;;5018670;28;20304;-67
2022/08/30 13:47:46;;;;;;;10.75;9.95;;;;;;;;;;5014933;28;20061;-67
2022/08/30 13:50:11;;;;;;;11.32;10.43;;;;;;;;;;5020942;28;20056;-67
2022/08/30 13:52:38;;;;;;;11.20;10.27;;;;;;;;;;5019569;28;20166;-67
2022/08/30 13:55:04;;;;;;;11.15;10.35;;;;;;;;;;5017029;28;20510;-67
2022/08/30 13:57:30;;;;;;;11.32;10.50;;;;;;;;;;5015202;28;20038;-67
2022/08/30 13:59:56;;;;;;;11.23;10.18;;;;;;;;;;5022113;28;20547;-67
2022/08/30 14:02:21;;;;;;;11.18;10.38;;;;;;;;;;5020398;28;20041;-67
2022/08/30 14:04:47;;;;;;;10.65;9.95;;;;;;;;;;5016924;28;20124;-67
2022/08/30 14:07:13;;;;;;;10.50;9.80;;;;;;;;;;5022130;28;20599;-67
2022/08/30 14:09:38;;;;;;;10.95;10.02;;;;;;;;;;5021552;28;20087;-67
2022/08/30 14:12:04;;;;;;;10.85;10.05;;;;;;;;;;5018005;28;20065;-67
2022/08/30 14:14:30;;;;;;;11.43;10.48;;;;;;;;;;5017039;28;20041;-67
2022/08/30 14:16:55;;;;;;;11.02;9.82;;;;;;;;;;5022648;28;20033;-67
2022/08/30 14:19:21;;;;;;;10.70;9.90;;;;;;;;;;5015977;28;20040;-67
2022/08/30 14:21:47;;;;;;;10.82;9.93;;;;;;;;;;5014195;28;20056;-67
2022/08/30 14:24:13;;;;;;;10.88;9.80;;;;;;;;;;5019107;28;20045;-67
2022/08/30 14:26:46;;;;;;;10.23;9.52;;;;;;;;;;5022495;28;20442;-67
2022/08/30 14:29:15;;;;;;;10.18;9.48;;;;;;;;;;5004886;28;20038;-67
2022/08/30 14:31:40;;;;;;;10.27;9.50;;;;;;;;;;5007837;28;20085;-67
2022/08/30 14:34:08;;;;;;;10.23;9.35;;;;;;;;;;5010149;28;20572;-67
2022/08/30 14:36:36;;;;;;;10.60;9.50;;;;;;;;;;5021351;28;20025;-67
2022/08/30 14:39:05;;;;;;;10.25;9.52;;;;;;;;;;5019341;28;20551;-67
2022/08/30 14:41:30;;;;;;;;;;;;;;;;;;5019036;28;20030;-67
2022/08/30 14:43:56;;;;;;;11.52;10.63;;;;;;;;;;5017892;28;19923;-67
2022/08/30 14:46:24;;;;;;;10.80;9.90;;;;;;;;;;5009401;28;20491;-68